Dades meteomassalio
Diari Summary for Gener 14, 2017 Units:  English    Metric   Both
« Previous Day
Next Day »
Diari Semanal Mensual Anual Personalitzat
  Maxima: Minima: Mijana:
Temperatura: TemperatureC °F 3.2 °F 5.1 °F
Rosada: DewpointC °F -1.0 °F 0.4 °F
Humitat: Humidity % 53 % 72 %
Velocitat del vent: WindSpeedKMH mph 9.3 mph 32 mph
Racha vent: WindSpeedGustKMH mph - -
Vent:- - NW
Pressio: PressurehPa in 1023.9 in -
Pluja: 0.0 in    
Historical Graphs
 
 
Tabular Data for Gener 14, 2017
Time Temperature Dew Point Pressure Wind Wind Speed Wind Gust Humidity Rainfall Rate (Hourly) solar Conditions
TemperatureC °F DewpointC °F PressurehPa in Calm     Humidity % HourlyPrecipMM in SolarRadiationWatts/m^2 W/m2 Conditions
00:02 4.1 °F 0.9 °F 1024.3 in WNW 20.4 mph 20.4 mph 80 % 0.0 in 0.0 W/m2 CLR
00:07 4.0 °F 0.8 °F 1024.3 in NW 22.2 mph 22.2 mph 80 % 0.0 in 0.0 W/m2 CLR
00:12 3.9 °F 0.8 °F 1023.9 in NW 20.4 mph 20.4 mph 80 % 0.0 in 0.0 W/m2 CLR
00:17 4.0 °F 0.8 °F 1023.9 in NW 24.1 mph 24.1 mph 80 % 0.0 in 0.0 W/m2 CLR
00:22 4.0 °F 0.8 °F 1023.9 in NW 22.2 mph 22.2 mph 80 % 0.0 in 0.0 W/m2 CLR
00:27 3.9 °F 0.8 °F 1023.9 in WNW 18.5 mph 18.5 mph 80 % 0.0 in 0.0 W/m2 CLR
00:32 4.0 °F 0.8 °F 1023.9 in WNW 20.4 mph 20.4 mph 80 % 0.0 in 0.0 W/m2 CLR
00:37 4.0 °F 0.8 °F 1023.9 in WNW 22.2 mph 22.2 mph 80 % 0.0 in 0.0 W/m2 CLR
00:42 4.0 °F 0.8 °F 1023.9 in NW 18.5 mph 18.5 mph 80 % 0.0 in 0.0 W/m2 CLR
00:47 4.1 °F 0.9 °F 1023.9 in NW 25.9 mph 25.9 mph 80 % 0.0 in 0.0 W/m2 CLR
00:52 4.1 °F 0.9 °F 1023.9 in NW 20.4 mph 20.4 mph 80 % 0.0 in 0.0 W/m2 CLR
00:57 4.1 °F 0.9 °F 1024.3 in NW 22.2 mph 22.2 mph 80 % 0.0 in 0.0 W/m2 CLR
01:02 4.0 °F 0.8 °F 1023.9 in NW 22.2 mph 22.2 mph 80 % 0.0 in 0.0 W/m2 CLR
01:07 3.9 °F 0.8 °F 1023.9 in NW 20.4 mph 20.6 mph 80 % 0.0 in 0.0 W/m2 CLR
01:12 3.9 °F 0.8 °F 1023.9 in NW 18.5 mph 18.5 mph 80 % 0.0 in 0.0 W/m2 CLR
01:17 3.9 °F 0.9 °F 1024.3 in NW 24.1 mph 24.1 mph 81 % 0.0 in 0.0 W/m2 CLR
01:22 4.0 °F 1.1 °F 1024.3 in NW 24.1 mph 24.1 mph 81 % 0.0 in 0.0 W/m2 CLR
01:27 4.0 °F 0.8 °F 1024.3 in WNW 18.5 mph 19.5 mph 80 % 0.0 in 0.0 W/m2 CLR
01:32 4.0 °F 0.8 °F 1024.3 in WNW 24.1 mph 24.1 mph 80 % 0.0 in 0.0 W/m2 CLR
01:37 3.9 °F 0.8 °F 1024.3 in NW 18.5 mph 18.5 mph 80 % 0.0 in 0.0 W/m2 CLR
01:42 4.0 °F 0.8 °F 1024.6 in NW 18.5 mph 18.5 mph 80 % 0.0 in 0.0 W/m2 CLR
01:47 4.0 °F 0.8 °F 1024.6 in NW 19.3 mph 19.3 mph 80 % 0.0 in 0.0 W/m2 CLR
01:52 4.0 °F 0.8 °F 1024.6 in NW 24.1 mph 24.1 mph 80 % 0.0 in 0.0 W/m2 CLR
01:57 4.0 °F 0.8 °F 1024.6 in NNW 18.5 mph 18.5 mph 80 % 0.0 in 0.0 W/m2 CLR
02:02 4.0 °F 0.8 °F 1024.6 in NNW 18.5 mph 18.5 mph 80 % 0.0 in 0.0 W/m2 CLR
02:07 3.9 °F 0.8 °F 1024.6 in NW 13.0 mph 13.0 mph 80 % 0.0 in 0.0 W/m2 CLR
02:12 3.9 °F 0.9 °F 1024.6 in NW 20.4 mph 20.4 mph 81 % 0.0 in 0.0 W/m2 CLR
02:17 3.9 °F 0.9 °F 1024.6 in NW 20.4 mph 20.4 mph 81 % 0.0 in 0.0 W/m2 CLR
02:22 3.8 °F 0.9 °F 1024.6 in NW 16.1 mph 16.1 mph 81 % 0.0 in 0.0 W/m2 CLR
02:27 3.8 °F 0.9 °F 1024.6 in NW 20.4 mph 20.4 mph 81 % 0.0 in 0.0 W/m2 CLR
02:32 3.8 °F 0.8 °F 1024.6 in NW 25.9 mph 25.9 mph 81 % 0.0 in 0.0 W/m2 CLR
02:37 3.7 °F 0.8 °F 1024.6 in NW 14.8 mph 14.8 mph 81 % 0.0 in 0.0 W/m2 CLR
02:42 3.7 °F 0.8 °F 1024.6 in NW 16.7 mph 16.7 mph 81 % 0.0 in 0.0 W/m2 CLR
02:47 3.7 °F 0.8 °F 1024.6 in NW 18.5 mph 18.5 mph 81 % 0.0 in 0.0 W/m2 CLR
02:52 3.7 °F 0.7 °F 1024.6 in NW 17.7 mph 17.7 mph 81 % 0.0 in 0.0 W/m2 CLR
02:57 3.7 °F 0.8 °F 1024.6 in NW 13.0 mph 13.0 mph 81 % 0.0 in 0.0 W/m2 CLR
03:02 3.6 °F 0.7 °F 1024.6 in NW 19.3 mph 19.3 mph 81 % 0.0 in 0.0 W/m2 CLR
03:07 3.7 °F 0.8 °F 1024.6 in NW 13.0 mph 13.0 mph 81 % 0.0 in 0.0 W/m2 CLR
03:12 3.8 °F 0.9 °F 1024.6 in NW 18.5 mph 18.5 mph 81 % 0.0 in 0.0 W/m2 CLR
03:17 3.8 °F 0.7 °F 1024.6 in WNW 19.3 mph 19.3 mph 80 % 0.0 in 0.0 W/m2 CLR
03:22 3.8 °F 0.7 °F 1024.6 in WNW 18.5 mph 18.5 mph 80 % 0.0 in 0.0 W/m2 CLR
03:27 3.7 °F 0.6 °F 1024.6 in WNW 16.7 mph 16.7 mph 80 % 0.0 in 0.0 W/m2 CLR
03:32 3.6 °F 0.7 °F 1024.6 in NW 22.2 mph 22.2 mph 81 % 0.0 in 0.0 W/m2 CLR
03:37 3.6 °F 0.7 °F 1024.6 in NW 20.4 mph 20.4 mph 81 % 0.0 in 0.0 W/m2 CLR
03:42 3.7 °F 0.8 °F 1024.6 in NW 24.1 mph 24.1 mph 81 % 0.0 in 0.0 W/m2 CLR
03:47 3.7 °F 0.8 °F 1024.6 in NW 18.5 mph 18.5 mph 81 % 0.0 in 0.0 W/m2 CLR
03:52 3.7 °F 0.7 °F 1024.6 in NW 24.1 mph 24.1 mph 81 % 0.0 in 0.0 W/m2 CLR
03:57 3.6 °F 0.7 °F 1024.9 in NW 18.5 mph 18.5 mph 81 % 0.0 in 0.0 W/m2 CLR
04:02 3.7 °F 0.8 °F 1024.6 in NW 20.4 mph 20.4 mph 81 % 0.0 in 0.0 W/m2 CLR
04:08 3.7 °F 0.8 °F 1024.6 in NW 20.4 mph 20.4 mph 81 % 0.0 in 0.0 W/m2 CLR
04:13 3.8 °F 0.7 °F 1024.9 in NW 18.5 mph 18.5 mph 80 % 0.0 in 0.0 W/m2 CLR
04:18 3.7 °F 0.7 °F 1024.6 in NW 16.7 mph 16.7 mph 81 % 0.0 in 0.0 W/m2 CLR
04:23 3.7 °F 0.7 °F 1024.6 in NW 18.5 mph 18.5 mph 81 % 0.0 in 0.0 W/m2 CLR
04:28 3.6 °F 0.7 °F 1024.9 in NW 14.8 mph 14.8 mph 81 % 0.0 in 0.0 W/m2 CLR
04:33 3.6 °F 0.6 °F 1024.6 in NW 9.3 mph 9.3 mph 81 % 0.0 in 0.0 W/m2 CLR
04:38 3.6 °F 0.6 °F 1024.9 in NW 12.9 mph 12.9 mph 81 % 0.0 in 0.0 W/m2 CLR
04:43 3.6 °F 0.6 °F 1024.9 in NNW 18.5 mph 18.5 mph 81 % 0.0 in 0.0 W/m2 CLR
04:48 3.6 °F 0.6 °F 1024.9 in NW 16.7 mph 16.7 mph 81 % 0.0 in 0.0 W/m2 CLR
04:53 3.6 °F 0.6 °F 1024.6 in NW 18.5 mph 18.5 mph 81 % 0.0 in 0.0 W/m2 CLR
04:58 3.6 °F 0.6 °F 1024.6 in NW 22.2 mph 22.2 mph 81 % 0.0 in 0.0 W/m2 CLR
05:03 3.6 °F 0.7 °F 1024.6 in NW 16.7 mph 16.7 mph 81 % 0.0 in 0.0 W/m2 CLR
05:08 3.6 °F 0.7 °F 1024.6 in NW 14.8 mph 14.8 mph 81 % 0.0 in 0.0 W/m2 CLR
05:13 3.6 °F 0.5 °F 1024.6 in NW 13.0 mph 13.0 mph 80 % 0.0 in 0.0 W/m2 CLR
05:18 3.6 °F 0.4 °F 1024.3 in NW 12.9 mph 12.9 mph 80 % 0.0 in 0.0 W/m2 CLR
05:23 3.6 °F 0.4 °F 1024.3 in WNW 14.8 mph 14.8 mph 80 % 0.0 in 0.0 W/m2 CLR
05:28 3.5 °F 0.4 °F 1024.3 in WNW 9.3 mph 9.3 mph 80 % 0.0 in 0.0 W/m2 CLR
05:33 3.4 °F 0.3 °F 1024.3 in NW 14.8 mph 14.8 mph 80 % 0.0 in 0.0 W/m2 CLR
05:38 3.4 °F 0.3 °F 1024.3 in NW 20.9 mph 20.9 mph 80 % 0.0 in 0.0 W/m2 CLR
05:43 3.5 °F 0.4 °F 1024.3 in NW 20.4 mph 20.4 mph 80 % 0.0 in 0.0 W/m2 CLR
05:48 3.4 °F 0.3 °F 1024.3 in WNW 18.5 mph 18.5 mph 80 % 0.0 in 0.0 W/m2 CLR
05:53 3.4 °F 0.3 °F 1024.3 in WNW 24.1 mph 24.1 mph 80 % 0.0 in 0.0 W/m2 CLR
05:58 3.6 °F 0.4 °F 1024.3 in WNW 25.9 mph 25.9 mph 80 % 0.0 in 0.0 W/m2 CLR
06:03 3.6 °F 0.5 °F 1024.3 in NW 29.6 mph 29.6 mph 80 % 0.0 in 0.0 W/m2 CLR
06:08 3.6 °F 0.5 °F 1024.3 in NW 25.9 mph 25.9 mph 80 % 0.0 in 0.0 W/m2 CLR
06:13 3.6 °F 0.5 °F 1024.3 in NW 24.1 mph 24.1 mph 80 % 0.0 in 0.0 W/m2 CLR
06:18 3.6 °F 0.3 °F 1024.3 in NW 31.5 mph 31.5 mph 79 % 0.0 in 0.0 W/m2 CLR
06:23 3.6 °F 0.3 °F 1024.6 in NW 22.2 mph 22.2 mph 79 % 0.0 in 0.0 W/m2 CLR
06:28 3.6 °F 0.5 °F 1024.3 in NW 27.4 mph 27.4 mph 80 % 0.0 in 0.0 W/m2 CLR
06:33 3.6 °F 0.3 °F 1024.3 in WNW 24.1 mph 24.1 mph 79 % 0.0 in 0.0 W/m2 CLR
06:38 3.6 °F 0.3 °F 1024.3 in WNW 24.1 mph 24.1 mph 79 % 0.0 in 0.0 W/m2 CLR
06:43 3.5 °F 0.4 °F 1024.3 in WNW 24.1 mph 24.1 mph 80 % 0.0 in 0.0 W/m2 CLR
06:48 3.5 °F 0.4 °F 1024.3 in WNW 27.8 mph 27.8 mph 80 % 0.0 in 0.0 W/m2 CLR
06:53 3.5 °F 0.4 °F 1024.6 in WNW 29.6 mph 29.6 mph 80 % 0.0 in 0.0 W/m2 CLR
06:58 3.4 °F 0.3 °F 1024.3 in WNW 25.9 mph 25.9 mph 80 % 0.0 in 0.0 W/m2 CLR
07:03 3.3 °F 0.2 °F 1024.3 in WNW 20.4 mph 20.4 mph 80 % 0.0 in 0.0 W/m2 CLR
07:08 3.3 °F 0.2 °F 1024.6 in WNW 25.9 mph 25.9 mph 80 % 0.0 in 0.0 W/m2 CLR
07:13 3.3 °F 0.2 °F 1024.6 in WNW 22.2 mph 22.2 mph 80 % 0.0 in 0.0 W/m2 CLR
07:18 3.3 °F 0.2 °F 1024.6 in NW 25.9 mph 25.9 mph 80 % 0.0 in 0.0 W/m2 CLR
07:23 3.3 °F 0.2 °F 1024.6 in NW 25.9 mph 25.9 mph 80 % 0.0 in 0.0 W/m2 CLR
07:28 3.2 °F -0.1 °F 1024.6 in NW 24.1 mph 24.1 mph 79 % 0.0 in 0.0 W/m2 CLR
07:33 3.3 °F 0.1 °F 1024.9 in NW 27.8 mph 27.8 mph 79 % 0.0 in 0.0 W/m2 CLR
07:38 3.5 °F 0.2 °F 1024.9 in NNW 27.8 mph 27.8 mph 79 % 0.0 in 0.0 W/m2 CLR
07:43 3.4 °F 0.2 °F 1024.9 in NNW 22.2 mph 22.2 mph 79 % 0.0 in 0.0 W/m2 CLR
07:48 3.4 °F 0.1 °F 1025.3 in NNW 24.1 mph 24.1 mph 79 % 0.0 in 0.0 W/m2 CLR
07:53 3.4 °F 0.1 °F 1025.3 in NW 19.3 mph 19.3 mph 79 % 0.0 in 0.0 W/m2 CLR
07:58 3.3 °F 0.1 °F 1025.3 in NW 20.4 mph 20.4 mph 79 % 0.0 in 0.0 W/m2 CLR
08:03 3.5 °F 0.2 °F 1025.6 in NNW 27.8 mph 27.8 mph 79 % 0.0 in 0.0 W/m2 CLR
08:08 3.6 °F 0.3 °F 1025.6 in NW 24.1 mph 24.1 mph 79 % 0.0 in 0.0 W/m2 CLR
08:13 3.7 °F 0.3 °F 1025.6 in NW 29.6 mph 29.6 mph 79 % 0.0 in 0.0 W/m2 CLR
08:18 3.7 °F 0.2 °F 1025.6 in NW 40.2 mph 40.2 mph 78 % 0.0 in 0.0 W/m2 CLR
08:23 3.8 °F 0.3 °F 1025.6 in NW 31.5 mph 31.5 mph 78 % 0.0 in 5.0 W/m2 OVC
08:28 3.7 °F 0.4 °F 1025.6 in NW 33.3 mph 33.3 mph 79 % 0.0 in 5.0 W/m2 BKN
08:33 3.6 °F 0.3 °F 1025.6 in NW 22.5 mph 22.5 mph 79 % 0.0 in 7.0 W/m2 BKN
08:38 3.6 °F 0.3 °F 1025.6 in WNW 27.8 mph 27.8 mph 79 % 0.0 in 11.0 W/m2 BKN
08:43 3.6 °F 0.3 °F 1025.6 in WNW 33.3 mph 33.3 mph 79 % 0.0 in 14.0 W/m2 BKN
08:48 3.6 °F 0.3 °F 1025.6 in NW 24.1 mph 24.1 mph 79 % 0.0 in 16.0 W/m2 BKN
08:53 3.6 °F 0.3 °F 1025.6 in NW 24.1 mph 24.1 mph 79 % 0.0 in 16.0 W/m2 BKN
08:58 3.7 °F 0.3 °F 1025.6 in WNW 29.6 mph 29.6 mph 79 % 0.0 in 21.0 W/m2 BKN
09:03 3.7 °F 0.4 °F 1025.6 in WNW 25.9 mph 25.9 mph 79 % 0.0 in 26.0 W/m2 BKN
09:08 3.7 °F 0.4 °F 1025.6 in WNW 31.5 mph 31.5 mph 79 % 0.0 in 26.0 W/m2 BKN
09:13 3.8 °F 0.5 °F 1025.6 in WNW 33.3 mph 33.3 mph 79 % 0.0 in 28.0 W/m2 BKN
09:18 3.9 °F 0.6 °F 1025.6 in WNW 37.0 mph 37.0 mph 79 % 0.0 in 26.0 W/m2 BKN
09:23 3.9 °F 0.6 °F 1025.6 in WNW 22.2 mph 22.2 mph 79 % 0.0 in 35.0 W/m2 BKN
09:29 4.1 °F 0.6 °F 1025.6 in WNW 25.9 mph 25.9 mph 78 % 0.0 in 97.0 W/m2 BKN
09:34 4.3 °F 0.8 °F 1025.6 in WNW 45.1 mph 45.1 mph 78 % 0.0 in 113.0 W/m2 BKN
09:39 4.4 °F 0.8 °F 1026.0 in WNW 33.3 mph 33.3 mph 77 % 0.0 in 84.0 W/m2 BKN
09:44 4.5 °F 0.8 °F 1026.0 in NW 37.0 mph 37.0 mph 77 % 0.0 in 163.0 W/m2 BKN
09:49 4.6 °F 0.9 °F 1026.0 in NW 24.1 mph 24.1 mph 77 % 0.0 in 148.0 W/m2 BKN
09:54 4.6 °F 0.9 °F 1026.0 in NW 29.6 mph 29.6 mph 77 % 0.0 in 116.0 W/m2 BKN
09:59 4.7 °F 1.1 °F 1026.0 in WNW 24.1 mph 24.1 mph 77 % 0.0 in 165.0 W/m2 BKN
10:04 4.8 °F 0.9 °F 1026.0 in NW 33.3 mph 33.3 mph 76 % 0.0 in 98.0 W/m2 BKN
10:14 4.9 °F 1.1 °F 1026.0 in NW 29.6 mph 29.6 mph 76 % 0.0 in 186.0 W/m2 BKN
10:19 5.0 °F 0.9 °F 1026.0 in NW 35.2 mph 35.2 mph 75 % 0.0 in 237.0 W/m2 SCT
10:24 5.1 °F 1.1 °F 1026.0 in NW 38.9 mph 38.9 mph 75 % 0.0 in 251.0 W/m2 SCT
10:29 5.2 °F 1.1 °F 1026.0 in NW 38.9 mph 38.9 mph 75 % 0.0 in 264.0 W/m2 SCT
10:34 5.3 °F 1.3 °F 1026.0 in NW 27.8 mph 27.8 mph 75 % 0.0 in 279.0 W/m2 SCT
10:39 5.5 °F 1.2 °F 1026.0 in NW 37.0 mph 37.0 mph 74 % 0.0 in 292.0 W/m2 SCT
10:44 5.6 °F 1.2 °F 1026.0 in NW 31.5 mph 31.5 mph 73 % 0.0 in 302.0 W/m2 SCT
10:49 5.7 °F 1.1 °F 1026.0 in NW 42.6 mph 42.6 mph 72 % 0.0 in 313.0 W/m2 FEW
10:54 5.8 °F 1.2 °F 1026.0 in NW 31.5 mph 31.5 mph 72 % 0.0 in 322.0 W/m2 FEW
10:59 5.9 °F 1.1 °F 1026.0 in NW 38.9 mph 38.9 mph 71 % 0.0 in 334.0 W/m2 FEW
11:04 6.1 °F 1.2 °F 1026.0 in NW 32.2 mph 32.2 mph 71 % 0.0 in 345.0 W/m2 FEW
11:09 6.2 °F 0.9 °F 1026.0 in NNW 35.2 mph 35.2 mph 69 % 0.0 in 357.0 W/m2 FEW
11:14 6.3 °F 0.8 °F 1026.0 in NNW 31.5 mph 31.5 mph 68 % 0.0 in 325.0 W/m2 FEW
11:19 6.4 °F 0.8 °F 1026.0 in NW 35.2 mph 35.2 mph 67 % 0.0 in 380.0 W/m2 FEW
11:24 6.6 °F 0.9 °F 1025.6 in NW 38.9 mph 38.9 mph 67 % 0.0 in 390.0 W/m2 FEW
11:29 6.8 °F 0.9 °F 1025.6 in NNW 29.6 mph 29.9 mph 66 % 0.0 in 383.0 W/m2 FEW
11:34 6.8 °F 0.7 °F 1025.6 in NNW 44.4 mph 44.4 mph 65 % 0.0 in 411.0 W/m2 FEW
11:39 6.9 °F 0.8 °F 1025.6 in NW 37.0 mph 37.0 mph 65 % 0.0 in 401.0 W/m2 FEW
11:44 7.1 °F 0.9 °F 1025.3 in NNW 46.3 mph 46.3 mph 65 % 0.0 in 406.0 W/m2 FEW
11:49 6.9 °F 0.8 °F 1025.6 in NNW 55.5 mph 55.5 mph 65 % 0.0 in 406.0 W/m2 FEW
11:54 6.7 °F 0.8 °F 1025.3 in NW 51.8 mph 51.8 mph 66 % 0.0 in 422.0 W/m2 CLR
11:59 6.8 °F 1.1 °F 1025.3 in NW 37.0 mph 37.0 mph 67 % 0.0 in 431.0 W/m2 CLR
12:04 6.9 °F 0.9 °F 1025.3 in NW 51.8 mph 51.8 mph 66 % 0.0 in 429.0 W/m2 CLR
12:09 6.9 °F 1.2 °F 1024.9 in NW 37.0 mph 37.0 mph 67 % 0.0 in 432.0 W/m2 CLR
12:14 7.0 °F 0.9 °F 1024.9 in NW 50.0 mph 50.0 mph 65 % 0.0 in 436.0 W/m2 CLR
12:19 7.0 °F 0.7 °F 1024.9 in NW 55.5 mph 55.5 mph 64 % 0.0 in 441.0 W/m2 CLR
12:24 7.2 °F 0.6 °F 1024.9 in NW 42.6 mph 42.6 mph 63 % 0.0 in 445.0 W/m2 CLR
12:29 7.3 °F 0.4 °F 1024.9 in NW 50.0 mph 50.0 mph 62 % 0.0 in 450.0 W/m2 CLR
12:34 7.4 °F 0.4 °F 1025.3 in NW 51.5 mph 51.5 mph 61 % 0.0 in 452.0 W/m2 CLR
12:39 7.4 °F 0.3 °F 1025.3 in NNW 40.7 mph 40.7 mph 61 % 0.0 in 454.0 W/m2 CLR
12:44 7.4 °F 0.6 °F 1025.3 in NNW 37.0 mph 37.0 mph 62 % 0.0 in 457.0 W/m2 CLR
12:49 7.6 °F 0.3 °F 1025.3 in NW 44.4 mph 44.4 mph 60 % 0.0 in 459.0 W/m2 CLR
12:54 7.6 °F 0.3 °F 1025.3 in NW 31.5 mph 31.5 mph 60 % 0.0 in 462.0 W/m2 CLR
12:59 7.6 °F 0.1 °F 1025.3 in NNW 48.1 mph 48.1 mph 59 % 0.0 in 462.0 W/m2 CLR
13:04 7.6 °F 0.1 °F 1025.3 in NNW 50.0 mph 50.0 mph 59 % 0.0 in 462.0 W/m2 CLR
13:09 7.6 °F -0.2 °F 1024.9 in NNW 53.7 mph 53.7 mph 58 % 0.0 in 464.0 W/m2 CLR
13:14 7.8 °F 0.1 °F 1024.9 in NNW 35.2 mph 35.2 mph 58 % 0.0 in 464.0 W/m2 CLR
13:19 8.0 °F 0.0 °F 1025.3 in NNW 51.8 mph 51.8 mph 57 % 0.0 in 464.0 W/m2 CLR
13:24 8.0 °F -0.3 °F 1024.9 in NNW 38.9 mph 38.9 mph 56 % 0.0 in 462.0 W/m2 CLR
13:29 8.2 °F -0.1 °F 1024.9 in NNW 25.9 mph 25.9 mph 56 % 0.0 in 461.0 W/m2 CLR
13:34 8.3 °F -0.5 °F 1024.9 in NNW 46.3 mph 46.3 mph 54 % 0.0 in 462.0 W/m2 CLR
13:39 7.9 °F -0.8 °F 1024.9 in NNW 46.3 mph 46.3 mph 54 % 0.0 in 455.0 W/m2 CLR
13:44 7.9 °F -0.3 °F 1024.6 in NNW 40.7 mph 40.7 mph 56 % 0.0 in 454.0 W/m2 CLR
13:49 7.8 °F -0.2 °F 1024.6 in NNW 40.2 mph 40.2 mph 57 % 0.0 in 454.0 W/m2 CLR
13:54 7.9 °F -0.3 °F 1024.9 in NNW 55.5 mph 55.5 mph 56 % 0.0 in 450.0 W/m2 CLR
13:59 7.9 °F -0.3 °F 1024.9 in NNW 42.6 mph 42.6 mph 56 % 0.0 in 448.0 W/m2 CLR
14:04 8.1 °F 0.3 °F 1024.9 in NNW 32.2 mph 32.2 mph 58 % 0.0 in 443.0 W/m2 CLR
14:09 8.1 °F 0.1 °F 1024.9 in NNW 44.4 mph 44.4 mph 57 % 0.0 in 443.0 W/m2 CLR
14:14 7.9 °F -0.1 °F 1024.9 in NNW 48.1 mph 48.1 mph 57 % 0.0 in 436.0 W/m2 CLR
14:19 8.1 °F 0.1 °F 1024.6 in NNW 48.1 mph 48.1 mph 57 % 0.0 in 427.0 W/m2 CLR
14:24 8.1 °F -0.4 °F 1024.6 in NNW 48.1 mph 48.1 mph 55 % 0.0 in 429.0 W/m2 CLR
14:29 8.1 °F -0.2 °F 1024.9 in NNW 46.3 mph 46.3 mph 56 % 0.0 in 420.0 W/m2 CLR
14:34 7.9 °F -0.1 °F 1024.6 in NNW 44.4 mph 44.4 mph 57 % 0.0 in 410.0 W/m2 CLR
14:39 8.0 °F -0.5 °F 1024.9 in NNW 50.0 mph 50.0 mph 55 % 0.0 in 399.0 W/m2 CLR
14:44 7.9 °F -0.3 °F 1024.9 in NW 57.4 mph 57.4 mph 56 % 0.0 in 394.0 W/m2 CLR
14:49 7.9 °F -0.1 °F 1024.6 in NW 42.6 mph 42.6 mph 57 % 0.0 in 390.0 W/m2 CLR
14:54 8.1 °F -0.4 °F 1024.6 in NNW 38.6 mph 38.6 mph 55 % 0.0 in 381.0 W/m2 CLR
14:59 8.2 °F -0.3 °F 1024.6 in NNW 40.7 mph 40.7 mph 55 % 0.0 in 369.0 W/m2 CLR
15:04 8.1 °F -0.2 °F 1024.9 in NW 42.6 mph 42.6 mph 56 % 0.0 in 364.0 W/m2 CLR
15:09 7.9 °F -0.1 °F 1024.9 in NW 43.4 mph 43.4 mph 57 % 0.0 in 355.0 W/m2 CLR
15:14 8.0 °F 0.0 °F 1024.6 in NW 43.4 mph 43.4 mph 57 % 0.0 in 350.0 W/m2 CLR
15:19 8.1 °F 0.1 °F 1024.6 in NW 43.4 mph 43.4 mph 57 % 0.0 in 338.0 W/m2 CLR
15:24 8.0 °F -0.3 °F 1024.6 in NNW 55.5 mph 55.5 mph 56 % 0.0 in 327.0 W/m2 CLR
15:29 8.1 °F -0.2 °F 1024.9 in NW 42.6 mph 42.6 mph 56 % 0.0 in 318.0 W/m2 CLR
15:34 8.2 °F -0.1 °F 1024.6 in NW 38.9 mph 38.9 mph 56 % 0.0 in 309.0 W/m2 CLR
15:39 8.1 °F -0.4 °F 1024.9 in NW 42.6 mph 42.6 mph 55 % 0.0 in 297.0 W/m2 CLR
15:44 8.1 °F -0.7 °F 1024.9 in NNW 48.1 mph 48.1 mph 54 % 0.0 in 292.0 W/m2 CLR
15:49 8.1 °F -0.9 °F 1024.6 in NNW 46.3 mph 46.3 mph 53 % 0.0 in 276.0 W/m2 CLR
15:54 8.1 °F -0.7 °F 1024.9 in NW 43.4 mph 43.4 mph 54 % 0.0 in 264.0 W/m2 CLR
15:59 8.1 °F -0.7 °F 1024.9 in NW 42.6 mph 42.6 mph 54 % 0.0 in 246.0 W/m2 CLR
16:04 7.9 °F -0.8 °F 1024.9 in NNW 38.6 mph 38.6 mph 54 % 0.0 in 234.0 W/m2 CLR
16:09 7.9 °F -0.8 °F 1024.9 in NW 29.6 mph 29.6 mph 54 % 0.0 in 221.0 W/m2 CLR
16:14 7.9 °F -0.8 °F 1024.9 in NNW 48.3 mph 48.3 mph 54 % 0.0 in 209.0 W/m2 CLR
16:20 7.9 °F -0.6 °F 1024.9 in NNW 31.5 mph 31.5 mph 55 % 0.0 in 193.0 W/m2 CLR
16:25 7.8 °F -0.9 °F 1024.9 in NW 53.7 mph 53.7 mph 54 % 0.0 in 174.0 W/m2 CLR
16:30 7.8 °F -0.7 °F 1024.9 in NNW 40.7 mph 40.7 mph 55 % 0.0 in 163.0 W/m2 CLR
16:35 7.8 °F -0.4 °F 1024.9 in NW 42.6 mph 42.6 mph 56 % 0.0 in 148.0 W/m2 CLR
16:40 7.6 °F -0.9 °F 1024.9 in NW 46.3 mph 46.3 mph 55 % 0.0 in 134.0 W/m2 CLR
16:45 7.6 °F -0.9 °F 1025.3 in NW 51.8 mph 51.8 mph 55 % 0.0 in 118.0 W/m2 CLR
16:50 7.4 °F -0.8 °F 1024.9 in NNW 48.3 mph 48.3 mph 56 % 0.0 in 104.0 W/m2 CLR
16:55 7.4 °F -0.8 °F 1024.9 in NNW 35.2 mph 35.2 mph 56 % 0.0 in 93.0 W/m2 CLR
17:00 7.3 °F -0.9 °F 1024.9 in NNW 48.3 mph 48.3 mph 56 % 0.0 in 79.0 W/m2 CLR
17:05 7.3 °F -0.9 °F 1024.9 in NNW 33.3 mph 33.3 mph 56 % 0.0 in 60.0 W/m2 CLR
17:10 7.2 °F -1.0 °F 1025.3 in NNW 48.1 mph 48.1 mph 56 % 0.0 in 53.0 W/m2 OVC
17:15 7.1 °F -0.8 °F 1024.9 in NNW 42.6 mph 42.6 mph 57 % 0.0 in 40.0 W/m2 OVC
17:20 7.1 °F -0.9 °F 1024.9 in NW 46.3 mph 46.3 mph 57 % 0.0 in 33.0 W/m2 OVC
17:25 7.0 °F -0.9 °F 1024.9 in NW 37.0 mph 37.0 mph 57 % 0.0 in 23.0 W/m2 OVC
17:30 6.9 °F -0.8 °F 1025.3 in NW 31.5 mph 31.5 mph 58 % 0.0 in 14.0 W/m2 OVC
17:35 6.8 °F -0.9 °F 1025.3 in NW 46.3 mph 46.3 mph 58 % 0.0 in 12.0 W/m2 OVC
17:40 6.7 °F -0.7 °F 1025.3 in NW 38.9 mph 38.9 mph 59 % 0.0 in 11.0 W/m2 OVC
17:45 6.6 °F -0.2 °F 1025.3 in NW 37.0 mph 37.0 mph 62 % 0.0 in 9.0 W/m2 OVC
17:50 6.4 °F -0.1 °F 1025.3 in NW 42.6 mph 42.6 mph 63 % 0.0 in 5.0 W/m2 OVC
17:55 6.3 °F -0.2 °F 1025.3 in NW 29.6 mph 29.6 mph 63 % 0.0 in 5.0 W/m2 OVC
18:00 6.2 °F -0.1 °F 1025.6 in NW 37.0 mph 37.0 mph 64 % 0.0 in 0.0 W/m2 CLR
18:05 6.2 °F -0.2 °F 1025.6 in NW 41.8 mph 41.8 mph 64 % 0.0 in 0.0 W/m2 CLR
18:10 6.1 °F 0.0 °F 1025.6 in NW 38.9 mph 38.9 mph 65 % 0.0 in 0.0 W/m2 CLR
18:15 6.0 °F -0.1 °F 1025.6 in NW 40.7 mph 40.7 mph 65 % 0.0 in 0.0 W/m2 CLR
18:20 5.9 °F 0.0 °F 1025.6 in NW 46.3 mph 46.3 mph 66 % 0.0 in 0.0 W/m2 CLR
18:25 5.8 °F 0.2 °F 1025.6 in NW 31.5 mph 31.5 mph 67 % 0.0 in 0.0 W/m2 CLR
18:30 5.7 °F 0.3 °F 1026.0 in NW 33.3 mph 33.3 mph 68 % 0.0 in 0.0 W/m2 CLR
18:35 5.6 °F 0.4 °F 1026.0 in NW 37.0 mph 37.0 mph 69 % 0.0 in 0.0 W/m2 CLR
18:40 5.5 °F 0.3 °F 1026.0 in NW 27.8 mph 27.8 mph 69 % 0.0 in 0.0 W/m2 CLR
18:45 5.6 °F 0.3 °F 1026.0 in NW 35.2 mph 35.2 mph 69 % 0.0 in 0.0 W/m2 CLR
18:50 5.5 °F 0.3 °F 1026.0 in NW 31.5 mph 31.5 mph 69 % 0.0 in 0.0 W/m2 CLR
18:55 5.4 °F 0.2 °F 1026.3 in NW 35.2 mph 35.2 mph 69 % 0.0 in 0.0 W/m2 CLR
19:00 5.4 °F 0.3 °F 1026.3 in NW 38.9 mph 38.9 mph 70 % 0.0 in 0.0 W/m2 CLR
19:05 5.3 °F 0.3 °F 1026.3 in NW 35.2 mph 35.2 mph 70 % 0.0 in 0.0 W/m2 CLR
19:10 5.3 °F 0.3 °F 1026.3 in NW 33.3 mph 33.3 mph 70 % 0.0 in 0.0 W/m2 CLR
19:15 5.3 °F 0.4 °F 1026.3 in NW 37.0 mph 37.0 mph 71 % 0.0 in 0.0 W/m2 CLR
19:20 5.3 °F 0.4 °F 1026.3 in NW 38.9 mph 38.9 mph 71 % 0.0 in 0.0 W/m2 CLR
19:25 5.2 °F 0.6 °F 1026.3 in NW 37.0 mph 37.0 mph 72 % 0.0 in 0.0 W/m2 CLR
19:30 5.2 °F 0.6 °F 1026.3 in NW 31.5 mph 31.5 mph 72 % 0.0 in 0.0 W/m2 CLR
19:35 5.2 °F 0.7 °F 1026.3 in NW 37.0 mph 37.0 mph 73 % 0.0 in 0.0 W/m2 CLR
19:40 5.1 °F 0.7 °F 1026.3 in NW 35.2 mph 35.2 mph 73 % 0.0 in 0.0 W/m2 CLR
19:45 5.1 °F 0.6 °F 1026.6 in NW 42.6 mph 42.6 mph 73 % 0.0 in 0.0 W/m2 CLR
19:50 5.1 °F 0.8 °F 1026.3 in NW 42.6 mph 42.6 mph 74 % 0.0 in 0.0 W/m2 CLR
19:55 5.0 °F 0.7 °F 1026.3 in NW 38.9 mph 38.9 mph 74 % 0.0 in 0.0 W/m2 CLR
20:00 5.0 °F 0.7 °F 1026.6 in NW 31.5 mph 32.8 mph 74 % 0.0 in 0.0 W/m2 CLR
20:05 4.9 °F 0.7 °F 1026.6 in NW 33.8 mph 33.8 mph 74 % 0.0 in 0.0 W/m2 CLR
20:10 4.9 °F 0.8 °F 1026.6 in NW 37.0 mph 37.0 mph 75 % 0.0 in 0.0 W/m2 CLR
20:15 4.8 °F 0.8 °F 1027.0 in NW 38.9 mph 38.9 mph 75 % 0.0 in 0.0 W/m2 CLR
20:20 4.8 °F 0.7 °F 1027.0 in NW 35.2 mph 35.2 mph 75 % 0.0 in 0.0 W/m2 CLR
20:25 4.7 °F 0.7 °F 1027.0 in NW 29.0 mph 29.0 mph 75 % 0.0 in 0.0 W/m2 CLR
20:30 4.7 °F 0.8 °F 1027.0 in NW 40.7 mph 40.7 mph 76 % 0.0 in 0.0 W/m2 CLR
20:35 4.6 °F 0.7 °F 1027.0 in NW 33.3 mph 33.3 mph 76 % 0.0 in 0.0 W/m2 CLR
20:40 4.6 °F 0.7 °F 1027.0 in NW 42.6 mph 42.6 mph 76 % 0.0 in 0.0 W/m2 CLR
20:45 4.6 °F 0.7 °F 1027.0 in NW 38.9 mph 38.9 mph 76 % 0.0 in 0.0 W/m2 CLR
20:50 4.7 °F 0.8 °F 1027.0 in NW 43.4 mph 43.4 mph 76 % 0.0 in 0.0 W/m2 CLR
20:55 4.6 °F 0.7 °F 1027.0 in NW 33.3 mph 33.3 mph 76 % 0.0 in 0.0 W/m2 CLR
21:00 4.6 °F 0.7 °F 1027.3 in NW 41.8 mph 41.8 mph 76 % 0.0 in 0.0 W/m2 CLR
21:05 4.5 °F 0.6 °F 1027.0 in NW 33.3 mph 33.3 mph 76 % 0.0 in 0.0 W/m2 CLR
21:10 4.4 °F 0.5 °F 1027.3 in NW 40.7 mph 40.7 mph 76 % 0.0 in 0.0 W/m2 CLR
21:15 4.4 °F 0.5 °F 1027.3 in NW 33.3 mph 33.3 mph 76 % 0.0 in 0.0 W/m2 CLR
21:20 4.3 °F 0.6 °F 1027.3 in NW 40.7 mph 40.7 mph 77 % 0.0 in 0.0 W/m2 CLR
21:25 4.3 °F 0.4 °F 1027.3 in NW 29.6 mph 29.6 mph 76 % 0.0 in 0.0 W/m2 CLR
21:30 4.2 °F 0.6 °F 1027.3 in NW 29.6 mph 29.6 mph 77 % 0.0 in 0.0 W/m2 CLR
21:35 4.2 °F 0.5 °F 1027.3 in NW 22.2 mph 22.2 mph 77 % 0.0 in 0.0 W/m2 CLR
21:40 4.2 °F 0.6 °F 1027.3 in NW 35.2 mph 35.2 mph 77 % 0.0 in 0.0 W/m2 CLR
21:45 4.2 °F 0.3 °F 1027.3 in NW 25.9 mph 25.9 mph 76 % 0.0 in 0.0 W/m2 CLR
21:50 4.1 °F 0.4 °F 1027.3 in NW 24.1 mph 24.1 mph 77 % 0.0 in 0.0 W/m2 CLR
21:55 4.1 °F 0.4 °F 1027.3 in NW 29.6 mph 29.6 mph 77 % 0.0 in 0.0 W/m2 CLR
22:00 4.1 °F 0.4 °F 1027.3 in WNW 25.9 mph 25.9 mph 77 % 0.0 in 0.0 W/m2 CLR
22:05 4.0 °F 0.3 °F 1027.3 in WNW 29.6 mph 29.6 mph 77 % 0.0 in 0.0 W/m2 CLR
22:10 4.1 °F 0.4 °F 1027.3 in NW 27.8 mph 27.8 mph 77 % 0.0 in 0.0 W/m2 CLR
22:15 4.1 °F 0.2 °F 1027.3 in NW 27.8 mph 27.8 mph 76 % 0.0 in 0.0 W/m2 CLR
22:20 4.1 °F 0.3 °F 1027.3 in NW 31.5 mph 31.5 mph 76 % 0.0 in 0.0 W/m2 CLR
22:25 4.1 °F 0.3 °F 1027.3 in WNW 31.5 mph 31.5 mph 76 % 0.0 in 0.0 W/m2 CLR
22:31 4.2 °F 0.4 °F 1027.3 in NW 29.6 mph 29.6 mph 76 % 0.0 in 0.0 W/m2 CLR
22:36 4.2 °F 0.2 °F 1027.3 in NW 38.9 mph 38.9 mph 75 % 0.0 in 0.0 W/m2 CLR
22:41 4.3 °F 0.2 °F 1027.3 in NW 42.6 mph 42.6 mph 75 % 0.0 in 0.0 W/m2 CLR
22:46 4.2 °F 0.4 °F 1027.0 in NW 29.6 mph 29.6 mph 76 % 0.0 in 0.0 W/m2 CLR
22:50 4.2 °F 0.4 °F 1027.3 in NW 42.6 mph 42.6 mph 76 % 0.0 in 0.0 W/m2 CLR
22:56 4.3 °F 0.4 °F 1027.3 in NW 38.9 mph 38.9 mph 76 % 0.0 in 0.0 W/m2 CLR
23:00 4.3 °F 0.4 °F 1027.3 in NW 31.5 mph 31.5 mph 76 % 0.0 in 0.0 W/m2 CLR
23:05 4.3 °F 0.4 °F 1027.3 in NW 33.3 mph 33.3 mph 76 % 0.0 in 0.0 W/m2 CLR
23:11 4.3 °F 0.7 °F 1027.3 in NW 35.2 mph 35.2 mph 77 % 0.0 in 0.0 W/m2 CLR
23:16 4.3 °F 0.6 °F 1027.3 in NW 29.6 mph 29.6 mph 77 % 0.0 in 0.0 W/m2 CLR
23:21 4.2 °F 0.6 °F 1027.0 in NW 33.3 mph 33.3 mph 77 % 0.0 in 0.0 W/m2 CLR
23:26 4.3 °F 0.6 °F 1027.3 in NW 42.6 mph 42.6 mph 77 % 0.0 in 0.0 W/m2 CLR
23:31 4.3 °F 0.6 °F 1027.3 in NW 35.2 mph 35.2 mph 77 % 0.0 in 0.0 W/m2 CLR
23:36 4.3 °F 0.6 °F 1027.0 in NW 40.7 mph 40.7 mph 77 % 0.0 in 0.0 W/m2 CLR
23:41 4.2 °F 0.6 °F 1027.0 in NW 38.9 mph 38.9 mph 77 % 0.0 in 0.0 W/m2 CLR
23:46 4.3 °F 0.8 °F 1027.0 in NW 38.9 mph 38.9 mph 78 % 0.0 in 0.0 W/m2 CLR
23:51 4.3 °F 0.8 °F 1027.0 in NW 33.3 mph 33.3 mph 78 % 0.0 in 0.0 W/m2 CLR
23:56 4.3 °F 0.8 °F 1027.0 in NW 35.2 mph 35.2 mph 78 % 0.0 in 0.0 W/m2 CLR
Lo Temps de Massalio
Compliments of Weather Underground - 1.25 mb